Time;durP1;ratioP1;P1;durP2;ratioP2;P2;SDS_P1;SDS_P2;PMS_P1;PMS_P2;Temp;Humidity;BMP_temperature;BMP_pressure;BME280_temperature;BME280_humidity;BME280_pressure;Samples;Min_cycle;Max_cycle;Signal;HPM_P1;HPM_P2
2023/02/28 00:01:57;;;;;;;;;;;;;;;-2.20;80.38;97731.69;109099;1270;22536;-83
2023/02/28 00:04:26;;;;;;;;;;;;;;;-2.22;80.07;97737.27;109087;1273;22630;-83
2023/02/28 00:06:55;;;;;;;;;;;;;;;-2.23;80.45;97741.15;109157;1273;22557;-82
2023/02/28 00:09:25;;;;;;;;;;;;;;;-2.23;80.24;97739.42;109125;1273;22619;-83
2023/02/28 00:11:54;;;;;;;;;;;;;;;-2.23;80.36;97741.93;109065;1269;61469;-83
2023/02/28 00:14:24;;;;;;;;;;;;;;;-2.26;80.35;97744.58;109102;1273;22516;-83
2023/02/28 00:16:53;;;;;;;;;;;;;;;-2.27;80.35;97741.24;109081;1266;22569;-83
2023/02/28 00:19:23;;;;;;;;;;;;;;;-2.30;80.29;97743.83;109105;1273;23657;-83
2023/02/28 00:21:52;;;;;;;;;;;;;;;-2.33;80.22;97744.27;109056;1274;24208;-83
2023/02/28 00:24:21;;;;;;;;;;;;;;;-2.34;80.21;97753.36;109101;1273;22618;-83
2023/02/28 00:26:51;;;;;;;;;;;;;;;-2.35;80.54;97747.55;109065;1273;22821;-83
2023/02/28 00:29:20;;;;;;;;;;;;;;;-2.37;80.23;97748.11;109062;1273;22562;-83
2023/02/28 00:31:50;;;;;;;;;;;;;;;-2.40;80.15;97749.09;109058;1267;22583;-83
2023/02/28 00:34:19;;;;;;;;;;;;;;;-2.42;80.19;97754.33;109098;1273;23076;-83
2023/02/28 00:36:49;;;;;;;;;;;;;;;-2.41;80.40;97763.05;109067;1273;22523;-83
2023/02/28 00:39:19;;;;;;;;;;;;;;;-2.42;80.25;97758.84;109112;1262;22542;-83
2023/02/28 00:41:48;;;;;;;;;;;;;;;-2.42;80.52;97758.34;109046;1273;24841;-83
2023/02/28 00:44:17;;;;;;;;;;;;;;;-2.42;80.38;97756.95;109084;1274;22859;-84
2023/02/28 00:46:47;;;;;;;;;;;;;;;-2.42;80.41;97755.71;109080;1273;22512;-83
2023/02/28 00:49:16;;;;;;;;;;;;;;;-2.43;80.51;97755.94;109111;1273;22645;-85
2023/02/28 00:51:46;;;;;;;;;;;;;;;-2.44;80.40;97760.98;109076;1270;22480;-83
2023/02/28 00:54:15;;;;;;;;;;;;;;;-2.44;80.34;97769.30;109137;1273;23897;-83
2023/02/28 00:56:45;;;;;;;;;;;;;;;-2.44;80.24;97769.14;109081;1268;23734;-83
2023/02/28 00:59:15;;;;;;;;;;;;;;;-2.43;80.42;97769.16;109121;1273;24196;-85
2023/02/28 01:01:46;;;;;;;;;;;;;;;-2.41;80.48;97768.27;109135;1266;24207;-84
2023/02/28 01:04:16;;;;;;;;;;;;;;;-2.40;80.57;97767.23;109102;1270;22512;-84
2023/02/28 01:06:45;;;;;;;;;;;;;;;-2.39;80.42;97763.86;109108;1272;22541;-84
2023/02/28 01:09:15;;;;;;;;;;;;;;;-2.38;80.39;97764.19;109107;1269;22541;-84
2023/02/28 01:11:44;;;;;;;;;;;;;;;-2.40;80.27;97760.30;109106;1266;34310;-84
2023/02/28 01:14:15;;;;;;;;;;;;;;;-2.39;80.47;97755.59;109117;1273;22619;-84
2023/02/28 01:16:45;;;;;;;;;;;;;;;-2.37;80.35;97757.38;109095;1269;22498;-84
2023/02/28 01:19:14;;;;;;;;;;;;;;;-2.43;80.24;97756.63;109084;1273;22514;-84
2023/02/28 01:21:43;;;;;;;;;;;;;;;-2.48;80.42;97754.48;109088;1267;22494;-84
2023/02/28 01:24:13;;;;;;;;;;;;;;;-2.51;80.48;97753.46;109094;1273;22494;-84
2023/02/28 01:26:43;;;;;;;;;;;;;;;-2.53;80.46;97755.21;109089;1273;22495;-84
2023/02/28 01:29:12;;;;;;;;;;;;;;;-2.57;80.54;97754.44;109085;1270;25364;-84
2023/02/28 01:31:42;;;;;;;;;;;;;;;-2.62;80.69;97753.10;109066;1273;27540;-84
2023/02/28 01:34:12;;;;;;;;;;;;;;;-2.67;80.49;97752.24;109096;1269;22539;-84
2023/02/28 01:36:41;;;;;;;;;;;;;;;-2.76;80.28;97749.52;109109;1273;25279;-84
2023/02/28 01:39:12;;;;;;;;;;;;;;;-2.85;80.34;97747.25;109082;1274;23165;-84
2023/02/28 01:41:42;;;;;;;;;;;;;;;-2.91;80.51;97745.91;109099;1273;46179;-84
2023/02/28 01:44:25;;;;;;;;;;;;;;;-2.98;80.37;97743.31;109114;1273;22514;-84
2023/02/28 01:46:55;;;;;;;;;;;;;;;-3.06;80.36;97744.49;109119;1273;23786;-84
2023/02/28 01:49:25;;;;;;;;;;;;;;;-3.15;80.84;97740.80;109112;1273;22657;-84
2023/02/28 01:51:55;;;;;;;;;;;;;;;-3.24;81.19;97739.42;109083;1254;45769;-84
2023/02/28 01:54:27;;;;;;;;;;;;;;;-3.33;81.17;97737.42;109073;1267;24450;-84
2023/02/28 01:56:59;;;;;;;;;;;;;;;-3.40;81.22;97735.20;109085;1269;22506;-84
2023/02/28 01:59:33;;;;;;;;;;;;;;;-3.44;81.16;97732.66;109072;1273;24318;-84
2023/02/28 02:02:03;;;;;;;;;;;;;;;-3.46;81.08;97734.50;109069;1267;46266;-84
2023/02/28 02:04:37;;;;;;;;;;;;;;;-3.51;81.00;97730.68;109102;1273;22495;-84
2023/02/28 02:07:07;;;;;;;;;;;;;;;-3.53;81.10;97730.90;109081;1268;22654;-84
2023/02/28 02:09:36;;;;;;;;;;;;;;;-3.64;81.08;97732.33;109132;1273;23874;-84
2023/02/28 02:12:08;;;;;;;;;;;;;;;-3.77;81.00;97732.52;109096;1274;45233;-84
2023/02/28 02:14:49;;;;;;;;;;;;;;;-3.85;80.97;97736.34;109097;1273;22514;-84
2023/02/28 02:17:24;;;;;;;;;;;;;;;-3.92;80.86;97734.10;109108;1273;22519;-84
2023/02/28 02:20:08;;;;;;;;;;;;;;;-3.96;80.62;97739.16;109053;1273;22501;-84
2023/02/28 02:22:46;;;;;;;;;;;;;;;-3.98;80.52;97732.46;109052;1268;58129;-83
2023/02/28 02:25:24;;;;;;;;;;;;;;;-4.01;80.90;97726.02;109109;1268;25213;-84
2023/02/28 02:28:02;;;;;;;;;;;;;;;-4.06;81.02;97730.39;109081;1273;22797;-84
2023/02/28 02:30:48;;;;;;;;;;;;;;;-4.11;80.72;97720.71;109092;1273;22521;-84
2023/02/28 02:33:37;;;;;;;;;;;;;;;-4.22;80.41;97716.10;109020;1273;59812;-84
2023/02/28 02:36:09;;;;;;;;;;;;;;;-4.24;80.41;97713.95;109068;1269;22554;-84
2023/02/28 02:38:43;;;;;;;;;;;;;;;-4.27;80.52;97713.94;109104;1273;24173;-84
2023/02/28 02:41:15;;;;;;;;;;;;;;;-4.32;80.77;97713.34;109031;1273;48771;-84
2023/02/28 02:43:47;;;;;;;;;;;;;;;-4.44;80.64;97709.08;109080;1274;22522;-84
2023/02/28 02:46:20;;;;;;;;;;;;;;;-4.58;80.63;97711.58;109103;1269;24245;-84
2023/02/28 02:48:51;;;;;;;;;;;;;;;-4.65;80.79;97712.61;109131;1273;22563;-84
2023/02/28 02:51:23;;;;;;;;;;;;;;;-4.69;81.06;97714.10;109034;1265;40841;-84
2023/02/28 02:53:54;;;;;;;;;;;;;;;-4.73;81.15;97711.77;109088;1268;22495;-83
2023/02/28 02:56:25;;;;;;;;;;;;;;;-4.74;81.22;97710.70;109103;1269;22498;-84
2023/02/28 02:58:57;;;;;;;;;;;;;;;-4.73;81.05;97710.59;109107;1273;22495;-84
2023/02/28 03:01:28;;;;;;;;;;;;;;;-4.74;81.18;97712.30;109115;1269;53155;-84
2023/02/28 03:03:59;;;;;;;;;;;;;;;-4.76;81.24;97714.76;109062;1269;22482;-84
2023/02/28 03:06:28;;;;;;;;;;;;;;;-4.82;81.44;97726.09;108958;1273;128843;-84
2023/02/28 03:08:58;;;;;;;;;;;;;;;-4.86;81.40;97723.89;109044;1274;25396;-84
2023/02/28 03:11:28;;;;;;;;;;;;;;;-4.95;81.49;97727.36;109074;1273;52952;-84
2023/02/28 03:14:03;;;;;;;;;;;;;;;-5.03;81.66;97731.95;109099;1273;22494;-84
2023/02/28 03:16:37;;;;;;;;;;;;;;;-5.10;81.65;97730.59;109071;1266;23778;-84
2023/02/28 03:19:13;;;;;;;;;;;;;;;-5.20;81.96;97725.54;109107;1274;22531;-84
2023/02/28 03:21:45;;;;;;;;;;;;;;;-5.25;81.95;97728.80;109040;1266;37459;-84
2023/02/28 03:24:19;;;;;;;;;;;;;;;-5.23;82.09;97737.23;109098;1273;23407;-84
2023/02/28 03:26:54;;;;;;;;;;;;;;;-5.23;81.99;97733.73;109080;1273;22525;-85
2023/02/28 03:29:24;;;;;;;;;;;;;;;-5.28;82.23;97736.41;109061;1269;22501;-84
2023/02/28 03:31:58;;;;;;;;;;;;;;;-5.33;82.35;97737.55;109017;1266;48934;-85
2023/02/28 03:34:31;;;;;;;;;;;;;;;-5.38;82.37;97741.09;109070;1268;23027;-84
2023/02/28 03:37:05;;;;;;;;;;;;;;;-5.40;82.42;97747.86;109041;1273;22500;-84
2023/02/28 03:39:37;;;;;;;;;;;;;;;-5.40;82.44;97747.73;109091;1274;22609;-84
2023/02/28 03:42:10;;;;;;;;;;;;;;;-5.45;82.47;97749.02;109068;1270;33671;-85
2023/02/28 03:44:43;;;;;;;;;;;;;;;-5.45;82.57;97750.05;109059;1273;23332;-84
2023/02/28 03:47:16;;;;;;;;;;;;;;;-5.40;82.49;97748.84;109086;1269;25401;-84
2023/02/28 03:49:47;;;;;;;;;;;;;;;-5.38;82.41;97748.13;109062;1273;22506;-84
2023/02/28 03:52:19;;;;;;;;;;;;;;;-5.37;82.42;97744.26;109039;1266;36499;-84
2023/02/28 03:54:51;;;;;;;;;;;;;;;-5.37;82.42;97743.90;109069;1273;23703;-84
2023/02/28 03:57:28;;;;;;;;;;;;;;;-5.37;82.44;97751.17;109073;1273;22501;-84
2023/02/28 04:00:00;;;;;;;;;;;;;;;-5.45;82.30;97756.23;109103;1273;22541;-85
2023/02/28 04:02:30;;;;;;;;;;;;;;;-5.55;82.31;97753.30;109045;1270;52762;-85
2023/02/28 04:05:00;;;;;;;;;;;;;;;-5.67;82.33;97757.25;109081;1273;22543;-85
2023/02/28 04:07:31;;;;;;;;;;;;;;;-5.76;82.45;97758.09;109096;1273;22450;-85
2023/02/28 04:10:00;;;;;;;;;;;;;;;-5.77;82.69;97759.42;109044;1273;22563;-84
2023/02/28 04:12:30;;;;;;;;;;;;;;;-5.75;82.86;97769.37;109069;1273;45703;-84
2023/02/28 04:14:59;;;;;;;;;;;;;;;-5.76;82.90;97765.81;109098;1273;22576;-84
2023/02/28 04:17:29;;;;;;;;;;;;;;;-5.76;82.82;97765.83;109118;1274;23717;-85
2023/02/28 04:19:58;;;;;;;;;;;;;;;-5.82;82.81;97762.47;109094;1269;22495;-84
2023/02/28 04:22:28;;;;;;;;;;;;;;;-5.88;82.92;97759.75;109081;1267;38981;-84
2023/02/28 04:24:57;;;;;;;;;;;;;;;-5.91;83.18;97758.16;109098;1269;22637;-84
2023/02/28 04:27:26;;;;;;;;;;;;;;;-5.91;83.39;97757.73;109068;1272;22668;-84
2023/02/28 04:29:56;;;;;;;;;;;;;;;-5.92;83.42;97763.30;109056;1273;22554;-84
2023/02/28 04:32:25;;;;;;;;;;;;;;;-5.96;83.41;97763.84;109030;1273;41757;-85
2023/02/28 04:34:58;;;;;;;;;;;;;;;-5.92;83.75;97761.00;109080;1273;22533;-84
2023/02/28 04:37:34;;;;;;;;;;;;;;;-5.93;83.59;97763.02;109069;1269;22798;-84
2023/02/28 04:40:04;;;;;;;;;;;;;;;-5.98;83.49;97766.13;109099;1267;22523;-85
2023/02/28 04:42:35;;;;;;;;;;;;;;;-5.99;83.52;97765.66;109054;1274;38745;-86
2023/02/28 04:45:06;;;;;;;;;;;;;;;-5.94;83.55;97766.61;109098;1274;22516;-84
2023/02/28 04:47:35;;;;;;;;;;;;;;;-5.89;83.92;97760.55;109092;1269;22536;-84
2023/02/28 04:50:05;;;;;;;;;;;;;;;-5.84;83.79;97763.65;109117;1273;22502;-85
2023/02/28 04:52:34;;;;;;;;;;;;;;;-5.87;83.62;97767.25;109057;1268;40431;-84
2023/02/28 04:55:05;;;;;;;;;;;;;;;-5.88;83.73;97770.08;109055;1273;22510;-84
2023/02/28 04:57:34;;;;;;;;;;;;;;;-5.94;83.36;97772.61;109086;1273;22587;-84
2023/02/28 05:00:11;;;;;;;;;;;;;;;-6.01;83.65;97773.75;109070;1273;23731;-85
2023/02/28 05:02:40;;;;;;;;;;;;;;;-6.04;83.78;97766.98;109049;1270;28198;-84
2023/02/28 05:05:10;;;;;;;;;;;;;;;-6.02;83.85;97770.03;109103;1273;25278;-85
2023/02/28 05:07:39;;;;;;;;;;;;;;;-6.05;83.80;97771.89;109060;1273;26105;-84
2023/02/28 05:10:11;;;;;;;;;;;;;;;-6.09;83.79;97772.08;109075;1273;23605;-85
2023/02/28 05:12:41;;;;;;;;;;;;;;;-6.06;83.83;97777.47;109121;1268;33060;-84
2023/02/28 05:15:13;;;;;;;;;;;;;;;-6.03;83.94;97775.86;109037;1274;24274;-85
2023/02/28 05:17:43;;;;;;;;;;;;;;;-6.08;83.92;97779.17;109079;1273;22643;-86
2023/02/28 05:20:13;;;;;;;;;;;;;;;-6.08;84.20;97779.05;109081;1273;22621;-85
2023/02/28 05:22:43;;;;;;;;;;;;;;;-5.99;84.17;97776.52;109042;1273;38292;-85
2023/02/28 05:25:14;;;;;;;;;;;;;;;-5.98;83.96;97778.96;109055;1273;24541;-85
2023/02/28 05:27:44;;;;;;;;;;;;;;;-6.03;84.25;97779.92;109077;1262;22506;-85
2023/02/28 05:30:14;;;;;;;;;;;;;;;-6.03;83.92;97783.41;109119;1274;23463;-84
2023/02/28 05:32:43;;;;;;;;;;;;;;;-6.05;84.25;97784.31;109074;1273;46760;-85
2023/02/28 05:35:13;;;;;;;;;;;;;;;-6.06;84.28;97790.17;109071;1269;22514;-85
2023/02/28 05:37:43;;;;;;;;;;;;;;;-6.01;84.19;97793.40;109112;1270;22495;-84
2023/02/28 05:40:13;;;;;;;;;;;;;;;-5.94;84.53;97795.84;109116;1274;22606;-85
2023/02/28 05:42:42;;;;;;;;;;;;;;;-5.92;84.40;97800.35;109048;1272;33717;-84
2023/02/28 05:45:12;;;;;;;;;;;;;;;-5.87;84.50;97805.33;109098;1274;22528;-85
2023/02/28 05:47:42;;;;;;;;;;;;;;;-5.85;84.66;97808.38;109087;1262;22583;-84
2023/02/28 05:50:12;;;;;;;;;;;;;;;-5.82;84.63;97809.11;109098;1269;24315;-85
2023/02/28 05:52:41;;;;;;;;;;;;;;;-5.75;84.59;97810.45;109058;1273;37071;-84
2023/02/28 05:55:11;;;;;;;;;;;;;;;-5.69;84.82;97812.13;109089;1270;23849;-84
2023/02/28 05:57:40;;;;;;;;;;;;;;;-5.63;84.64;97814.52;109130;1274;23850;-85
2023/02/28 06:00:11;;;;;;;;;;;;;;;-5.54;84.88;97817.98;109082;1269;22635;-86
2023/02/28 06:02:41;;;;;;;;;;;;;;;-5.46;84.95;97823.75;109076;1274;22640;-84
2023/02/28 06:05:13;;;;;;;;;;;;;;;-5.35;85.12;97824.59;109066;1272;25221;-86
2023/02/28 06:07:43;;;;;;;;;;;;;;;-5.24;85.02;97821.77;109102;1272;22711;-84
2023/02/28 06:10:13;;;;;;;;;;;;;;;-5.18;85.03;97823.39;108826;1273;22514;-84
2023/02/28 06:12:42;;;;;;;;;;;;;;;-5.11;85.10;97822.89;109113;1274;23026;-84
2023/02/28 06:15:14;;;;;;;;;;;;;;;-5.00;85.19;97822.39;109084;1273;22741;-84
2023/02/28 06:17:44;;;;;;;;;;;;;;;-4.91;85.25;97830.58;109085;1266;22505;-84
2023/02/28 06:20:13;;;;;;;;;;;;;;;-4.88;85.07;97831.37;109119;1274;22514;-84
2023/02/28 06:22:43;;;;;;;;;;;;;;;-4.87;84.87;97834.38;109041;1273;22565;-84
2023/02/28 06:25:12;;;;;;;;;;;;;;;-4.83;84.97;97836.70;108906;1273;24428;-84
2023/02/28 06:27:42;;;;;;;;;;;;;;;-4.72;84.79;97839.13;109084;1273;22580;-84
2023/02/28 06:30:13;;;;;;;;;;;;;;;-4.63;85.06;97836.94;109082;1274;22550;-84
2023/02/28 06:32:42;;;;;;;;;;;;;;;-4.48;85.01;97837.73;109111;1273;23964;-84
2023/02/28 06:35:13;;;;;;;;;;;;;;;-4.36;84.91;97839.23;109127;1269;22494;-85
2023/02/28 06:37:43;;;;;;;;;;;;;;;-4.19;85.27;97843.58;109123;1266;24189;-84
2023/02/28 06:40:14;;;;;;;;;;;;;;;-4.01;85.30;97841.34;109073;1274;22542;-84
2023/02/28 06:42:43;;;;;;;;;;;;;;;-3.78;85.38;97846.98;109067;1273;22523;-84
2023/02/28 06:45:13;;;;;;;;;;;;;;;-3.43;85.38;97840.26;109056;1273;23289;-85
2023/02/28 06:47:43;;;;;;;;;;;;;;;-2.79;85.60;97836.56;109073;1274;22517;-84
2023/02/28 06:50:13;;;;;;;;;;;;;;;-2.14;85.06;97837.69;109104;1273;22495;-84
2023/02/28 06:52:42;;;;;;;;;;;;;;;-1.21;85.05;97840.70;109075;1274;22492;-84
2023/02/28 06:55:11;;;;;;;;;;;;;;;-0.24;84.36;97831.48;109066;1267;24206;-84
2023/02/28 06:57:41;;;;;;;;;;;;;;;0.45;83.06;97831.98;109080;1266;22478;-84
2023/02/28 07:00:13;;;;;;;;;;;;;;;0.86;81.45;97830.17;109131;1271;22496;-84
2023/02/28 07:02:43;;;;;;;;;;;;;;;0.88;79.85;97829.35;109013;1267;74139;-83
2023/02/28 07:05:12;;;;;;;;;;;;;;;0.85;78.83;97827.34;109116;1274;25298;-83
2023/02/28 07:07:44;;;;;;;;;;;;;;;0.91;78.37;97829.23;109056;1273;24737;-84
2023/02/28 07:10:16;;;;;;;;;;;;;;;1.00;77.81;97831.81;109120;1273;22466;-84
2023/02/28 07:12:45;;;;;;;;;;;;;;;1.12;77.35;97835.45;109101;1274;22503;-83
2023/02/28 07:15:15;;;;;;;;;;;;;;;1.39;77.12;97836.72;109067;1273;22510;-83
2023/02/28 07:17:44;;;;;;;;;;;;;;;1.88;77.00;97844.20;109090;1266;22544;-83
2023/02/28 07:20:14;;;;;;;;;;;;;;;2.50;76.63;97845.17;109091;1272;22557;-83
2023/02/28 07:22:43;;;;;;;;;;;;;;;3.15;75.73;97844.48;109101;1274;23963;-82
2023/02/28 07:25:13;;;;;;;;;;;;;;;3.54;74.17;97839.96;109057;1273;25246;-83
2023/02/28 07:27:42;;;;;;;;;;;;;;;4.06;73.55;97839.68;109070;1274;22547;-82
2023/02/28 07:30:13;;;;;;;;;;;;;;;4.51;71.34;97841.54;109103;1274;22553;-83
2023/02/28 07:32:42;;;;;;;;;;;;;;;4.67;70.60;97837.19;109105;1274;22603;-82
2023/02/28 07:35:12;;;;;;;;;;;;;;;5.00;68.90;97842.20;109068;1267;23909;-82
2023/02/28 07:37:41;;;;;;;;;;;;;;;5.14;67.85;97837.30;109068;1274;22636;-82
2023/02/28 07:40:12;;;;;;;;;;;;;;;5.50;63.01;97840.67;109069;1272;22492;-83
2023/02/28 07:42:42;;;;;;;;;;;;;;;4.96;57.11;97839.56;109036;1274;33432;-83
2023/02/28 07:45:12;;;;;;;;;;;;;;;4.97;58.23;97844.05;109082;1274;22529;-82
2023/02/28 07:47:43;;;;;;;;;;;;;;;5.19;53.88;97846.05;109076;1274;24215;-83
2023/02/28 07:50:14;;;;;;;;;;;;;;;4.97;52.11;97852.00;109088;1271;23616;-84
2023/02/28 07:52:43;;;;;;;;;;;;;;;5.01;51.92;97852.86;109079;1273;23278;-84
2023/02/28 07:55:13;;;;;;;;;;;;;;;4.84;49.54;97853.21;109070;1274;25933;-83
2023/02/28 07:57:43;;;;;;;;;;;;;;;4.67;52.51;97846.80;109090;1273;22932;-83
2023/02/28 08:00:13;;;;;;;;;;;;;;;5.24;51.76;97847.26;109137;1274;22505;-84
2023/02/28 08:02:42;;;;;;;;;;;;;;;5.65;50.43;97848.71;109060;1273;24711;-84
2023/02/28 08:05:12;;;;;;;;;;;;;;;5.63;48.74;97848.36;109070;1274;22516;-84
2023/02/28 08:07:41;;;;;;;;;;;;;;;5.62;47.53;97849.67;109107;1273;25941;-84
2023/02/28 08:10:11;;;;;;;;;;;;;;;5.51;46.64;97848.71;109067;1269;22518;-83
2023/02/28 08:12:41;;;;;;;;;;;;;;;5.82;50.17;97848.71;109069;1273;25268;-83
2023/02/28 08:15:11;;;;;;;;;;;;;;;7.29;50.87;97847.60;109088;1270;24187;-83
2023/02/28 08:17:41;;;;;;;;;;;;;;;7.95;50.10;97845.66;109065;1256;23723;-82
2023/02/28 08:20:11;;;;;;;;;;;;;;;8.74;50.34;97838.91;109084;1272;23753;-82
2023/02/28 08:22:41;;;;;;;;;;;;;;;9.51;50.82;97838.61;109031;1271;84812;-82
2023/02/28 08:25:11;;;;;;;;;;;;;;;10.40;51.24;97832.81;109057;1269;22904;-82
2023/02/28 08:27:40;;;;;;;;;;;;;;;11.12;46.84;97841.31;109076;1273;22519;-83
2023/02/28 08:30:11;;;;;;;;;;;;;;;10.19;40.68;97841.48;109092;1274;22535;-84
2023/02/28 08:32:41;;;;;;;;;;;;;;;7.43;39.17;97849.41;109074;1274;23970;-84
2023/02/28 08:35:11;;;;;;;;;;;;;;;5.94;42.45;97850.89;109110;1274;24213;-83
2023/02/28 08:37:40;;;;;;;;;;;;;;;6.74;46.26;97850.35;109100;1273;22520;-82
2023/02/28 08:40:13;;;;;;;;;;;;;;;8.28;46.15;97846.02;109078;1274;25695;-82
2023/02/28 08:42:42;;;;;;;;;;;;;;;8.44;42.35;97849.20;109067;1274;22492;-83
2023/02/28 08:45:12;;;;;;;;;;;;;;;7.66;40.96;97850.75;109120;1273;22515;-82
2023/02/28 08:47:42;;;;;;;;;;;;;;;7.65;44.07;97848.79;109059;1272;25426;-83
2023/02/28 08:50:14;;;;;;;;;;;;;;;7.95;43.56;97849.11;109085;1272;22573;-83
2023/02/28 08:52:44;;;;;;;;;;;;;;;8.48;45.16;97845.17;109045;1274;73743;-82
2023/02/28 08:55:14;;;;;;;;;;;;;;;9.08;45.37;97839.11;109093;1274;22575;-82
2023/02/28 08:57:44;;;;;;;;;;;;;;;9.47;45.86;97837.33;109089;1274;25278;-83
2023/02/28 09:00:14;;;;;;;;;;;;;;;9.32;44.65;97840.83;109098;1274;22495;-83
2023/02/28 09:02:44;;;;;;;;;;;;;;;8.34;43.21;97841.08;109077;1274;22578;-82
2023/02/28 09:05:13;;;;;;;;;;;;;;;7.92;45.80;97839.84;109090;1273;22491;-84
2023/02/28 09:07:43;;;;;;;;;;;;;;;7.20;44.16;97844.73;109067;1267;22502;-82
2023/02/28 09:10:12;;;;;;;;;;;;;;;6.72;46.23;97846.31;109112;1272;25406;-82
2023/02/28 09:12:42;;;;;;;;;;;;;;;6.67;46.96;97844.33;109130;1272;22553;-82
2023/02/28 09:15:12;;;;;;;;;;;;;;;6.50;46.88;97844.56;109093;1273;22621;-83
2023/02/28 09:17:41;;;;;;;;;;;;;;;5.70;44.26;97849.60;109075;1273;22499;-82
2023/02/28 09:20:12;;;;;;;;;;;;;;;4.77;45.77;97848.20;109047;1269;23982;-82
2023/02/28 09:22:41;;;;;;;;;;;;;;;4.76;47.83;97842.91;109112;1273;22507;-82
2023/02/28 09:25:11;;;;;;;;;;;;;;;5.01;48.24;97843.20;109111;1274;22531;-82
2023/02/28 09:27:40;;;;;;;;;;;;;;;5.02;47.44;97842.11;109113;1274;22480;-82
2023/02/28 09:30:11;;;;;;;;;;;;;;;4.85;48.26;97840.77;109059;1274;22587;-82
2023/02/28 09:32:40;;;;;;;;;;;;;;;4.98;48.94;97832.80;109047;1274;24212;-82
2023/02/28 09:35:14;;;;;;;;;;;;;;;4.83;47.27;97834.13;109081;1274;23803;-82
2023/02/28 09:37:43;;;;;;;;;;;;;;;4.35;48.45;97835.14;109089;1271;22547;-81
2023/02/28 09:40:17;;;;;;;;;;;;;;;4.49;49.53;97831.73;109060;1274;22577;-82
2023/02/28 09:42:49;;;;;;;;;;;;;;;4.61;49.69;97836.99;109055;1269;62770;-82
2023/02/28 09:45:23;;;;;;;;;;;;;;;4.57;49.14;97838.48;109082;1271;22511;-82
2023/02/28 09:47:55;;;;;;;;;;;;;;;4.23;47.84;97843.09;109055;1274;22522;-81
2023/02/28 09:50:32;;;;;;;;;;;;;;;3.69;47.88;97847.42;109112;1272;23663;-81
2023/02/28 09:53:04;;;;;;;;;;;;;;;3.63;50.56;97840.44;109036;1273;22494;-81
2023/02/28 09:55:37;;;;;;;;;;;;;;;3.97;50.36;97840.27;109116;1266;22560;-81
2023/02/28 09:58:15;;;;;;;;;;;;;;;4.06;50.25;97839.64;109190;1273;22496;-82
2023/02/28 10:00:44;;;;;;;;;;;;;;;4.17;50.73;97837.48;109065;1266;22519;-81
2023/02/28 10:03:31;;;;;;;;;;;;;;;4.26;50.75;97839.63;109018;1274;37287;-81
2023/02/28 10:06:07;;;;;;;;;;;;;;;4.18;50.47;97837.83;109113;1266;22505;-82
2023/02/28 10:08:44;;;;;;;;;;;;;;;4.30;50.96;97836.41;109060;1274;22651;-81
2023/02/28 10:11:17;;;;;;;;;;;;;;;4.46;50.67;97835.91;109063;1269;22512;-82
2023/02/28 10:13:52;;;;;;;;;;;;;;;4.54;50.75;97834.83;109091;1273;23777;-82
2023/02/28 10:16:24;;;;;;;;;;;;;;;4.67;50.78;97829.59;109060;1266;22576;-82
2023/02/28 10:18:57;;;;;;;;;;;;;;;4.71;50.97;97832.99;109090;1273;22556;-81
2023/02/28 10:21:29;;;;;;;;;;;;;;;4.50;50.70;97836.66;109042;1269;22608;-81
2023/02/28 10:24:02;;;;;;;;;;;;;;;4.22;50.43;97839.47;109067;1274;24916;-81
2023/02/28 10:26:32;;;;;;;;;;;;;;;4.09;50.45;97835.88;109063;1274;22506;-82
2023/02/28 10:29:02;;;;;;;;;;;;;;;3.85;50.80;97832.63;109066;1273;24199;-82
2023/02/28 10:31:32;;;;;;;;;;;;;;;3.72;50.62;97829.54;109053;1266;28743;-82
2023/02/28 10:34:01;;;;;;;;;;;;;;;3.40;51.20;97833.77;109159;1274;22582;-82
2023/02/28 10:36:30;;;;;;;;;;;;;;;3.52;51.59;97829.29;109070;1272;22501;-82
2023/02/28 10:39:00;;;;;;;;;;;;;;;3.72;51.78;97832.56;109107;1273;22827;-82
2023/02/28 10:41:34;;;;;;;;;;;;;;;3.61;51.18;97828.75;109072;1273;23209;-81
2023/02/28 10:44:15;;;;;;;;;;;;;;;3.75;52.14;97827.56;109088;1274;22819;-81
2023/02/28 10:46:46;;;;;;;;;;;;;;;3.99;52.28;97823.59;109119;1274;22600;-81
2023/02/28 10:49:18;;;;;;;;;;;;;;;4.19;52.01;97816.55;109098;1273;23492;-81
2023/02/28 10:51:50;;;;;;;;;;;;;;;4.13;50.77;97820.41;109066;1275;22520;-81
2023/02/28 10:54:20;;;;;;;;;;;;;;;3.75;50.60;97815.90;109072;1275;23833;-81
2023/02/28 10:57:06;;;;;;;;;;;;;;;3.84;51.94;97813.83;109059;1274;22554;-81
2023/02/28 10:59:36;;;;;;;;;;;;;;;4.04;51.07;97808.97;109103;1262;22533;-80
2023/02/28 11:02:29;;;;;;;;;;;;;;;3.78;50.78;97805.33;109050;1274;25344;-81
2023/02/28 11:04:58;;;;;;;;;;;;;;;3.39;50.82;97807.36;109065;1273;24186;-81
2023/02/28 11:07:28;;;;;;;;;;;;;;;3.10;51.30;97805.62;109052;1274;22556;-81
2023/02/28 11:09:58;;;;;;;;;;;;;;;3.24;52.97;97802.31;109077;1273;23151;-81
2023/02/28 11:12:30;;;;;;;;;;;;;;;3.61;53.40;97800.84;109119;1272;23769;-81
2023/02/28 11:15:01;;;;;;;;;;;;;;;3.84;52.69;97800.31;109105;1274;22499;-81
2023/02/28 11:17:31;;;;;;;;;;;;;;;3.92;53.08;97798.30;109092;1274;25344;-80
2023/02/28 11:20:03;;;;;;;;;;;;;;;3.87;51.69;97792.66;109093;1274;22498;-81
2023/02/28 11:22:35;;;;;;;;;;;;;;;3.78;51.92;97792.28;109072;1274;22670;-80
2023/02/28 11:25:11;;;;;;;;;;;;;;;3.68;52.00;97791.27;109075;1274;22657;-81
2023/02/28 11:27:47;;;;;;;;;;;;;;;3.40;50.74;97784.41;109092;1269;22617;-81
2023/02/28 11:30:34;;;;;;;;;;;;;;;2.73;51.34;97783.21;109089;1273;22671;-80
2023/02/28 11:33:20;;;;;;;;;;;;;;;2.44;51.78;97786.78;109054;1272;27713;-81
2023/02/28 11:35:50;;;;;;;;;;;;;;;2.40;52.22;97784.19;109089;1272;23682;-81
2023/02/28 11:38:19;;;;;;;;;;;;;;;2.58;53.28;97785.73;109086;1266;25224;-81
2023/02/28 11:40:52;;;;;;;;;;;;;;;2.71;52.41;97779.68;109058;1273;22537;-81
2023/02/28 11:43:26;;;;;;;;;;;;;;;2.83;53.44;97777.88;109000;1275;22531;-81
2023/02/28 11:46:06;;;;;;;;;;;;;;;3.14;53.85;97770.02;109110;1273;24033;-81
2023/02/28 11:48:41;;;;;;;;;;;;;;;3.42;53.43;97770.14;109102;1274;25413;-81
2023/02/28 11:51:16;;;;;;;;;;;;;;;3.51;53.75;97768.17;109056;1273;22486;-81
2023/02/28 11:53:56;;;;;;;;;;;;;;;3.64;52.53;97768.23;109108;1274;24181;-82
2023/02/28 11:56:29;;;;;;;;;;;;;;;3.17;50.83;97768.54;109123;1269;23810;-81
2023/02/28 11:59:05;;;;;;;;;;;;;;;2.80;51.36;97768.73;109056;1273;22497;-82
2023/02/28 12:01:39;;;;;;;;;;;;;;;2.43;52.21;97773.70;109075;1273;22526;-82
2023/02/28 12:04:22;;;;;;;;;;;;;;;2.42;52.27;97776.28;109097;1271;22544;-82
2023/02/28 12:06:57;;;;;;;;;;;;;;;2.46;53.14;97777.08;109082;1272;23778;-82
2023/02/28 12:09:41;;;;;;;;;;;;;;;2.75;53.08;97778.75;109098;1274;22527;-83
2023/02/28 12:12:19;;;;;;;;;;;;;;;2.68;51.83;97780.59;109087;1270;22585;-82
2023/02/28 12:15:11;;;;;;;;;;;;;;;2.59;53.20;97776.83;109052;1274;22470;-82
2023/02/28 12:17:48;;;;;;;;;;;;;;;2.86;53.23;97771.60;109000;1267;22513;-81
2023/02/28 12:20:25;;;;;;;;;;;;;;;3.12;53.99;97774.91;109088;1274;22501;-81
2023/02/28 12:23:04;;;;;;;;;;;;;;;3.33;52.93;97776.23;109013;1274;27298;-81
2023/02/28 12:25:44;;;;;;;;;;;;;;;3.39;53.37;97774.04;109057;1273;22521;-81
2023/02/28 12:28:15;;;;;;;;;;;;;;;3.52;52.52;97767.21;109078;1267;22530;-81
2023/02/28 12:30:50;;;;;;;;;;;;;;;3.55;52.89;97768.34;109088;1274;23102;-82
2023/02/28 12:33:23;;;;;;;;;;;;;;;3.51;52.84;97765.11;109046;1274;23480;-81
2023/02/28 12:35:56;;;;;;;;;;;;;;;3.52;52.88;97765.87;109112;1274;22550;-81
2023/02/28 12:38:28;;;;;;;;;;;;;;;3.67;53.27;97766.54;109114;1273;24212;-80
2023/02/28 12:41:01;;;;;;;;;;;;;;;3.84;53.46;97765.31;109071;1273;23331;-81
2023/02/28 12:43:34;;;;;;;;;;;;;;;3.95;53.41;97757.90;109086;1273;22525;-81
2023/02/28 12:46:09;;;;;;;;;;;;;;;4.12;53.45;97755.21;109095;1273;22500;-81
2023/02/28 12:48:41;;;;;;;;;;;;;;;4.21;53.54;97755.58;109157;1274;22703;-81
2023/02/28 12:51:12;;;;;;;;;;;;;;;4.27;52.73;97755.95;109058;1273;22503;-81
2023/02/28 12:53:51;;;;;;;;;;;;;;;4.15;53.05;97753.22;109081;1274;22504;-81
2023/02/28 12:56:28;;;;;;;;;;;;;;;4.04;51.66;97750.31;109132;1271;22576;-80
2023/02/28 12:59:00;;;;;;;;;;;;;;;3.77;51.93;97755.54;109051;1267;22516;-81
2023/02/28 13:01:38;;;;;;;;;;;;;;;3.70;53.03;97758.14;109087;1268;22633;-80
2023/02/28 13:04:36;;;;;;;;;;;;;;;3.79;52.45;97757.23;109069;1266;24178;-81